sensor_id;sensor_type;location;lat;lon;timestamp;pressure;altitude;pressure_sealevel;temperature;humidity
77452;BME280;66537;52.370;4.832;2023-11-19T00:01:55;100794.44;;;13.07;100.00
77452;BME280;66537;52.370;4.832;2023-11-19T00:04:23;100792.63;;;13.09;100.00
77452;BME280;66537;52.370;4.832;2023-11-19T00:06:48;100803.22;;;13.04;100.00
77452;BME280;66537;52.370;4.832;2023-11-19T00:09:14;100788.47;;;13.05;100.00
77452;BME280;66537;52.370;4.832;2023-11-19T00:11:41;100786.09;;;12.99;100.00
77452;BME280;66537;52.370;4.832;2023-11-19T00:14:07;100780.22;;;12.94;100.00
77452;BME280;66537;52.370;4.832;2023-11-19T00:16:33;100781.00;;;12.96;100.00
77452;BME280;66537;52.370;4.832;2023-11-19T00:18:59;100777.88;;;12.88;100.00
77452;BME280;66537;52.370;4.832;2023-11-19T00:21:24;100775.69;;;12.77;100.00
77452;BME280;66537;52.370;4.832;2023-11-19T00:23:54;100783.34;;;12.80;100.00
77452;BME280;66537;52.370;4.832;2023-11-19T00:26:19;100776.66;;;12.75;100.00
77452;BME280;66537;52.370;4.832;2023-11-19T00:28:44;100768.69;;;12.79;100.00
77452;BME280;66537;52.370;4.832;2023-11-19T00:31:10;100773.75;;;12.82;100.00
77452;BME280;66537;52.370;4.832;2023-11-19T00:33:35;100773.81;;;12.81;100.00
77452;BME280;66537;52.370;4.832;2023-11-19T00:36:02;100771.31;;;12.78;100.00
77452;BME280;66537;52.370;4.832;2023-11-19T00:38:28;100771.59;;;12.72;100.00
77452;BME280;66537;52.370;4.832;2023-11-19T00:40:53;100767.34;;;12.69;100.00
77452;BME280;66537;52.370;4.832;2023-11-19T00:43:18;100768.53;;;12.60;100.00
77452;BME280;66537;52.370;4.832;2023-11-19T00:45:47;100769.56;;;12.56;100.00
77452;BME280;66537;52.370;4.832;2023-11-19T00:48:15;100765.00;;;12.63;100.00
77452;BME280;66537;52.370;4.832;2023-11-19T00:50:41;100778.59;;;12.69;100.00
77452;BME280;66537;52.370;4.832;2023-11-19T00:53:09;100769.03;;;12.70;100.00
77452;BME280;66537;52.370;4.832;2023-11-19T00:55:34;100774.19;;;12.72;100.00
77452;BME280;66537;52.370;4.832;2023-11-19T00:58:00;100773.41;;;12.69;100.00
77452;BME280;66537;52.370;4.832;2023-11-19T01:00:25;100768.22;;;12.69;100.00
77452;BME280;66537;52.370;4.832;2023-11-19T01:02:52;100755.34;;;12.66;100.00
77452;BME280;66537;52.370;4.832;2023-11-19T01:05:17;100766.44;;;12.70;100.00
77452;BME280;66537;52.370;4.832;2023-11-19T01:07:46;100753.59;;;12.67;100.00
77452;BME280;66537;52.370;4.832;2023-11-19T01:10:12;100741.16;;;12.75;100.00
77452;BME280;66537;52.370;4.832;2023-11-19T01:12:38;100748.03;;;12.76;100.00
77452;BME280;66537;52.370;4.832;2023-11-19T01:15:05;100741.16;;;12.75;100.00
77452;BME280;66537;52.370;4.832;2023-11-19T01:17:30;100743.63;;;12.78;100.00
77452;BME280;66537;52.370;4.832;2023-11-19T01:19:57;100733.19;;;12.80;100.00
77452;BME280;66537;52.370;4.832;2023-11-19T01:22:22;100719.47;;;12.76;100.00
77452;BME280;66537;52.370;4.832;2023-11-19T01:24:48;100732.28;;;12.81;100.00
77452;BME280;66537;52.370;4.832;2023-11-19T01:27:13;100729.69;;;12.81;100.00
77452;BME280;66537;52.370;4.832;2023-11-19T01:29:39;100723.59;;;12.82;100.00
77452;BME280;66537;52.370;4.832;2023-11-19T01:32:04;100728.13;;;12.77;100.00
77452;BME280;66537;52.370;4.832;2023-11-19T01:34:30;100729.78;;;12.78;100.00
77452;BME280;66537;52.370;4.832;2023-11-19T01:36:55;100736.56;;;12.82;100.00
77452;BME280;66537;52.370;4.832;2023-11-19T01:39:21;100744.53;;;12.77;100.00
77452;BME280;66537;52.370;4.832;2023-11-19T01:41:47;100759.28;;;12.77;100.00
77452;BME280;66537;52.370;4.832;2023-11-19T01:44:12;100748.34;;;12.68;100.00
77452;BME280;66537;52.370;4.832;2023-11-19T01:46:42;100749.28;;;12.66;100.00
77452;BME280;66537;52.370;4.832;2023-11-19T01:49:08;100745.13;;;12.62;100.00
77452;BME280;66537;52.370;4.832;2023-11-19T01:51:34;100749.34;;;12.64;100.00
77452;BME280;66537;52.370;4.832;2023-11-19T01:54:01;100744.22;;;12.63;100.00
77452;BME280;66537;52.370;4.832;2023-11-19T01:56:27;100746.88;;;12.61;100.00
77452;BME280;66537;52.370;4.832;2023-11-19T01:58:54;100742.50;;;12.63;100.00
77452;BME280;66537;52.370;4.832;2023-11-19T02:01:21;100748.88;;;12.55;100.00
77452;BME280;66537;52.370;4.832;2023-11-19T02:03:47;100757.56;;;12.54;100.00
77452;BME280;66537;52.370;4.832;2023-11-19T02:06:12;100746.44;;;12.50;100.00
77452;BME280;66537;52.370;4.832;2023-11-19T02:08:39;100765.38;;;12.52;100.00
77452;BME280;66537;52.370;4.832;2023-11-19T02:11:04;100750.91;;;12.47;100.00
77452;BME280;66537;52.370;4.832;2023-11-19T02:13:32;100749.22;;;12.46;100.00
77452;BME280;66537;52.370;4.832;2023-11-19T02:15:57;100738.84;;;12.46;100.00
77452;BME280;66537;52.370;4.832;2023-11-19T02:18:25;100747.56;;;12.43;100.00
77452;BME280;66537;52.370;4.832;2023-11-19T02:20:59;100748.53;;;12.41;100.00
77452;BME280;66537;52.370;4.832;2023-11-19T02:23:28;100742.28;;;12.46;100.00
77452;BME280;66537;52.370;4.832;2023-11-19T02:26:23;100740.41;;;12.50;100.00
77452;BME280;66537;52.370;4.832;2023-11-19T02:28:51;100738.72;;;12.49;100.00
77452;BME280;66537;52.370;4.832;2023-11-19T02:31:17;100744.25;;;12.40;100.00
77452;BME280;66537;52.370;4.832;2023-11-19T02:33:44;100750.53;;;12.34;100.00
77452;BME280;66537;52.370;4.832;2023-11-19T02:36:09;100735.84;;;12.33;100.00
77452;BME280;66537;52.370;4.832;2023-11-19T02:38:35;100734.22;;;12.31;100.00
77452;BME280;66537;52.370;4.832;2023-11-19T02:41:04;100730.88;;;12.27;100.00
77452;BME280;66537;52.370;4.832;2023-11-19T02:43:31;100738.16;;;12.18;100.00
77452;BME280;66537;52.370;4.832;2023-11-19T02:46:00;100745.22;;;12.14;100.00
77452;BME280;66537;52.370;4.832;2023-11-19T02:48:25;100741.72;;;12.15;100.00
77452;BME280;66537;52.370;4.832;2023-11-19T02:50:51;100739.34;;;12.09;100.00
77452;BME280;66537;52.370;4.832;2023-11-19T02:53:17;100742.69;;;12.13;100.00
77452;BME280;66537;52.370;4.832;2023-11-19T02:55:43;100749.31;;;12.20;100.00
77452;BME280;66537;52.370;4.832;2023-11-19T02:58:14;100747.81;;;12.14;100.00
77452;BME280;66537;52.370;4.832;2023-11-19T03:00:45;100753.69;;;12.19;100.00
77452;BME280;66537;52.370;4.832;2023-11-19T03:03:21;100734.47;;;12.25;100.00
77452;BME280;66537;52.370;4.832;2023-11-19T03:05:48;100748.03;;;12.31;100.00
77452;BME280;66537;52.370;4.832;2023-11-19T03:08:17;100741.09;;;12.32;100.00
77452;BME280;66537;52.370;4.832;2023-11-19T03:10:42;100735.84;;;12.33;100.00
77452;BME280;66537;52.370;4.832;2023-11-19T03:13:12;100736.75;;;12.32;100.00
77452;BME280;66537;52.370;4.832;2023-11-19T03:15:39;100739.44;;;12.29;100.00
77452;BME280;66537;52.370;4.832;2023-11-19T03:18:04;100722.38;;;12.24;100.00
77452;BME280;66537;52.370;4.832;2023-11-19T03:20:30;100735.56;;;12.18;100.00
77452;BME280;66537;52.370;4.832;2023-11-19T03:22:55;100739.66;;;12.25;100.00
77452;BME280;66537;52.370;4.832;2023-11-19T03:25:24;100735.41;;;12.22;100.00
77452;BME280;66537;52.370;4.832;2023-11-19T03:27:50;100746.44;;;12.27;100.00
77452;BME280;66537;52.370;4.832;2023-11-19T03:30:16;100745.78;;;12.22;100.00
77452;BME280;66537;52.370;4.832;2023-11-19T03:32:42;100728.69;;;12.17;100.00
77452;BME280;66537;52.370;4.832;2023-11-19T03:35:08;100743.31;;;12.19;100.00
77452;BME280;66537;52.370;4.832;2023-11-19T03:37:34;100739.66;;;12.25;100.00
77452;BME280;66537;52.370;4.832;2023-11-19T03:39:59;100739.69;;;12.23;100.00
77452;BME280;66537;52.370;4.832;2023-11-19T03:42:28;100742.41;;;12.20;100.00
77452;BME280;66537;52.370;4.832;2023-11-19T03:44:55;100754.50;;;12.20;100.00
77452;BME280;66537;52.370;4.832;2023-11-19T03:47:21;100755.22;;;12.25;100.00
77452;BME280;66537;52.370;4.832;2023-11-19T03:49:50;100741.31;;;12.26;100.00
77452;BME280;66537;52.370;4.832;2023-11-19T03:52:16;100742.47;;;12.19;100.00
77452;BME280;66537;52.370;4.832;2023-11-19T03:54:42;100736.47;;;12.17;100.00
77452;BME280;66537;52.370;4.832;2023-11-19T03:57:07;100740.75;;;12.18;100.00
77452;BME280;66537;52.370;4.832;2023-11-19T03:59:35;100746.00;;;12.16;100.00
77452;BME280;66537;52.370;4.832;2023-11-19T04:02:00;100739.28;;;12.11;100.00
77452;BME280;66537;52.370;4.832;2023-11-19T04:04:27;100743.19;;;11.99;100.00
77452;BME280;66537;52.370;4.832;2023-11-19T04:06:53;100743.25;;;11.98;100.00
77452;BME280;66537;52.370;4.832;2023-11-19T04:09:18;100755.50;;;11.93;100.00
77452;BME280;66537;52.370;4.832;2023-11-19T04:11:44;100752.97;;;11.91;100.00
77452;BME280;66537;52.370;4.832;2023-11-19T04:14:12;100753.81;;;11.92;100.00
77452;BME280;66537;52.370;4.832;2023-11-19T04:16:38;100754.69;;;11.92;100.00
77452;BME280;66537;52.370;4.832;2023-11-19T04:19:03;100763.50;;;11.87;100.00
77452;BME280;66537;52.370;4.832;2023-11-19T04:21:28;100763.28;;;11.93;100.00
77452;BME280;66537;52.370;4.832;2023-11-19T04:23:54;100763.25;;;11.94;100.00
77452;BME280;66537;52.370;4.832;2023-11-19T04:26:19;100754.34;;;12.01;100.00
77452;BME280;66537;52.370;4.832;2023-11-19T04:28:44;100750.75;;;12.05;100.00
77452;BME280;66537;52.370;4.832;2023-11-19T04:31:10;100757.50;;;12.09;100.00
77452;BME280;66537;52.370;4.832;2023-11-19T04:33:35;100756.53;;;12.12;100.00
77452;BME280;66537;52.370;4.832;2023-11-19T04:36:00;100752.31;;;12.09;100.00
77452;BME280;66537;52.370;4.832;2023-11-19T04:38:26;100753.06;;;12.13;100.00
77452;BME280;66537;52.370;4.832;2023-11-19T04:40:52;100759.91;;;12.14;100.00
77452;BME280;66537;52.370;4.832;2023-11-19T04:43:17;100753.00;;;12.14;100.00
77452;BME280;66537;52.370;4.832;2023-11-19T04:45:42;100753.56;;;12.22;100.00
77452;BME280;66537;52.370;4.832;2023-11-19T04:48:08;100758.88;;;12.19;100.00
77452;BME280;66537;52.370;4.832;2023-11-19T04:50:34;100749.22;;;12.23;100.00
77452;BME280;66537;52.370;4.832;2023-11-19T04:52:59;100751.81;;;12.23;100.00
77452;BME280;66537;52.370;4.832;2023-11-19T04:55:25;100760.69;;;12.17;100.00
77452;BME280;66537;52.370;4.832;2023-11-19T04:57:50;100753.78;;;12.16;100.00
77452;BME280;66537;52.370;4.832;2023-11-19T05:00:15;100743.81;;;12.06;100.00
77452;BME280;66537;52.370;4.832;2023-11-19T05:02:41;100749.09;;;12.03;100.00
77452;BME280;66537;52.370;4.832;2023-11-19T05:05:06;100745.09;;;11.94;100.00
77452;BME280;66537;52.370;4.832;2023-11-19T05:07:32;100735.81;;;11.87;100.00
77452;BME280;66537;52.370;4.832;2023-11-19T05:09:57;100757.56;;;11.83;100.00
77452;BME280;66537;52.370;4.832;2023-11-19T05:12:23;100759.94;;;11.89;100.00
77452;BME280;66537;52.370;4.832;2023-11-19T05:14:48;100755.78;;;11.85;100.00
77452;BME280;66537;52.370;4.832;2023-11-19T05:17:17;100759.22;;;11.86;100.00
77452;BME280;66537;52.370;4.832;2023-11-19T05:19:43;100758.47;;;11.82;100.00
77452;BME280;66537;52.370;4.832;2023-11-19T05:22:08;100766.31;;;11.81;100.00
77452;BME280;66537;52.370;4.832;2023-11-19T05:24:33;100761.00;;;11.84;100.00
77452;BME280;66537;52.370;4.832;2023-11-19T05:26:59;100768.44;;;11.94;100.00
77452;BME280;66537;52.370;4.832;2023-11-19T05:29:24;100759.88;;;11.91;100.00
77452;BME280;66537;52.370;4.832;2023-11-19T05:31:50;100764.28;;;11.89;100.00
77452;BME280;66537;52.370;4.832;2023-11-19T05:34:15;100768.38;;;11.96;100.00
77452;BME280;66537;52.370;4.832;2023-11-19T05:36:40;100779.53;;;11.98;100.00
77452;BME280;66537;52.370;4.832;2023-11-19T05:39:06;100766.66;;;11.95;100.00
77452;BME280;66537;52.370;4.832;2023-11-19T05:41:31;100768.66;;;11.88;100.00
77452;BME280;66537;52.370;4.832;2023-11-19T05:43:56;100757.28;;;11.92;100.00
77452;BME280;66537;52.370;4.832;2023-11-19T05:46:21;100754.03;;;11.86;100.00
77452;BME280;66537;52.370;4.832;2023-11-19T05:48:47;100771.44;;;11.82;100.00
77452;BME280;66537;52.370;4.832;2023-11-19T05:51:13;100771.25;;;11.88;100.00
77452;BME280;66537;52.370;4.832;2023-11-19T05:53:40;100779.16;;;11.84;100.00
77452;BME280;66537;52.370;4.832;2023-11-19T05:56:05;100770.31;;;11.89;100.00
77452;BME280;66537;52.370;4.832;2023-11-19T05:58:33;100773.66;;;11.93;100.00
77452;BME280;66537;52.370;4.832;2023-11-19T06:00:58;100759.63;;;11.98;100.00
77452;BME280;66537;52.370;4.832;2023-11-19T06:03:26;100774.22;;;12.01;100.00
77452;BME280;66537;52.370;4.832;2023-11-19T06:05:52;100771.63;;;12.01;100.00
77452;BME280;66537;52.370;4.832;2023-11-19T06:08:17;100773.44;;;11.99;100.00
77452;BME280;66537;52.370;4.832;2023-11-19T06:10:44;100775.44;;;11.91;100.00
77452;BME280;66537;52.370;4.832;2023-11-19T06:13:14;100773.19;;;11.82;100.00
77452;BME280;66537;52.370;4.832;2023-11-19T06:15:43;100769.78;;;11.79;100.00
77452;BME280;66537;52.370;4.832;2023-11-19T06:18:09;100768.13;;;11.78;100.00
77452;BME280;66537;52.370;4.832;2023-11-19T06:20:35;100762.16;;;11.75;100.00
77452;BME280;66537;52.370;4.832;2023-11-19T06:23:02;100751.78;;;11.76;100.00
77452;BME280;66537;52.370;4.832;2023-11-19T06:25:28;100760.44;;;11.75;100.00
77452;BME280;66537;52.370;4.832;2023-11-19T06:27:53;100757.25;;;11.67;100.00
77452;BME280;66537;52.370;4.832;2023-11-19T06:30:19;100749.56;;;11.64;100.00
77452;BME280;66537;52.370;4.832;2023-11-19T06:32:45;100748.84;;;11.59;100.00
77452;BME280;66537;52.370;4.832;2023-11-19T06:35:10;100747.03;;;11.63;100.00
77452;BME280;66537;52.370;4.832;2023-11-19T06:37:38;100750.63;;;11.59;100.00
77452;BME280;66537;52.370;4.832;2023-11-19T06:40:04;100765.44;;;11.55;100.00
77452;BME280;66537;52.370;4.832;2023-11-19T06:42:30;100768.09;;;11.52;100.00
77452;BME280;66537;52.370;4.832;2023-11-19T06:44:56;100763.63;;;11.57;100.00
77452;BME280;66537;52.370;4.832;2023-11-19T06:47:25;100767.91;;;11.58;100.00
77452;BME280;66537;52.370;4.832;2023-11-19T06:49:50;100776.41;;;11.62;100.00
77452;BME280;66537;52.370;4.832;2023-11-19T06:52:16;100774.44;;;11.70;100.00
77452;BME280;66537;52.370;4.832;2023-11-19T06:54:41;100775.91;;;11.78;100.00
77452;BME280;66537;52.370;4.832;2023-11-19T06:57:06;100782.66;;;11.83;100.00
77452;BME280;66537;52.370;4.832;2023-11-19T06:59:34;100785.13;;;11.86;100.00
77452;BME280;66537;52.370;4.832;2023-11-19T07:01:59;100785.00;;;11.90;100.00
77452;BME280;66537;52.370;4.832;2023-11-19T07:04:25;100786.53;;;11.96;100.00
77452;BME280;66537;52.370;4.832;2023-11-19T07:06:50;100798.47;;;12.00;100.00
77452;BME280;66537;52.370;4.832;2023-11-19T07:09:18;100808.56;;;12.07;100.00
77452;BME280;66537;52.370;4.832;2023-11-19T07:11:44;100790.50;;;12.06;100.00
77452;BME280;66537;52.370;4.832;2023-11-19T07:14:11;100795.03;;;11.99;100.00
77452;BME280;66537;52.370;4.832;2023-11-19T07:16:37;100792.06;;;12.10;100.00
77452;BME280;66537;52.370;4.832;2023-11-19T07:19:03;100802.44;;;12.10;100.00
77452;BME280;66537;52.370;4.832;2023-11-19T07:21:30;100792.75;;;12.15;100.00
77452;BME280;66537;52.370;4.832;2023-11-19T07:23:56;100801.19;;;12.20;100.00
77452;BME280;66537;52.370;4.832;2023-11-19T07:26:22;100799.78;;;12.11;100.00
77452;BME280;66537;52.370;4.832;2023-11-19T07:28:48;100798.78;;;12.15;100.00
77452;BME280;66537;52.370;4.832;2023-11-19T07:31:13;100810.78;;;12.18;100.00
77452;BME280;66537;52.370;4.832;2023-11-19T07:33:39;100810.16;;;12.11;100.00
77452;BME280;66537;52.370;4.832;2023-11-19T07:36:08;100815.50;;;12.07;100.00
77452;BME280;66537;52.370;4.832;2023-11-19T07:38:33;100810.38;;;12.05;100.00
77452;BME280;66537;52.370;4.832;2023-11-19T07:40:59;100807.72;;;12.07;100.00
77452;BME280;66537;52.370;4.832;2023-11-19T07:43:24;100806.78;;;12.09;100.00
77452;BME280;66537;52.370;4.832;2023-11-19T07:45:50;100813.97;;;12.01;100.00
77452;BME280;66537;52.370;4.832;2023-11-19T07:48:15;100798.28;;;12.06;100.00
77452;BME280;66537;52.370;4.832;2023-11-19T07:50:41;100804.41;;;12.03;100.00
77452;BME280;66537;52.370;4.832;2023-11-19T07:53:07;100801.59;;;12.09;100.00
77452;BME280;66537;52.370;4.832;2023-11-19T07:55:33;100799.84;;;12.10;100.00
77452;BME280;66537;52.370;4.832;2023-11-19T07:57:58;100785.06;;;12.12;100.00
77452;BME280;66537;52.370;4.832;2023-11-19T08:00:24;100809.03;;;12.18;100.00
77452;BME280;66537;52.370;4.832;2023-11-19T08:02:49;100802.84;;;12.22;100.00
77452;BME280;66537;52.370;4.832;2023-11-19T08:05:14;100797.53;;;12.25;100.00
77452;BME280;66537;52.370;4.832;2023-11-19T08:07:40;100800.03;;;12.28;100.00
77452;BME280;66537;52.370;4.832;2023-11-19T08:10:05;100789.72;;;12.27;100.00
77452;BME280;66537;52.370;4.832;2023-11-19T08:12:35;100791.63;;;12.22;100.00
77452;BME280;66537;52.370;4.832;2023-11-19T08:15:04;100793.13;;;12.27;100.00
77452;BME280;66537;52.370;4.832;2023-11-19T08:17:33;100797.16;;;12.36;100.00
77452;BME280;66537;52.370;4.832;2023-11-19T08:19:58;100801.41;;;12.38;100.00
77452;BME280;66537;52.370;4.832;2023-11-19T08:22:25;100804.28;;;12.31;100.00
77452;BME280;66537;52.370;4.832;2023-11-19T08:24:51;100800.13;;;12.25;100.00
77452;BME280;66537;52.370;4.832;2023-11-19T08:27:16;100808.41;;;12.12;100.00
77452;BME280;66537;52.370;4.832;2023-11-19T08:29:41;100806.56;;;12.15;100.00
77452;BME280;66537;52.370;4.832;2023-11-19T08:32:07;100806.50;;;12.17;100.00
77452;BME280;66537;52.370;4.832;2023-11-19T08:34:32;100812.94;;;12.30;100.00
77452;BME280;66537;52.370;4.832;2023-11-19T08:36:58;100817.91;;;12.36;100.00
77452;BME280;66537;52.370;4.832;2023-11-19T08:39:23;100810.56;;;12.47;100.00
77452;BME280;66537;52.370;4.832;2023-11-19T08:41:49;100802.91;;;12.44;100.00
77452;BME280;66537;52.370;4.832;2023-11-19T08:44:14;100821.75;;;12.49;100.00
77452;BME280;66537;52.370;4.832;2023-11-19T08:46:49;100814.94;;;12.46;100.00
77452;BME280;66537;52.370;4.832;2023-11-19T08:49:15;100818.31;;;12.48;100.00
77452;BME280;66537;52.370;4.832;2023-11-19T08:51:40;100814.59;;;12.55;100.00
77452;BME280;66537;52.370;4.832;2023-11-19T08:54:06;100812.72;;;12.59;100.00
77452;BME280;66537;52.370;4.832;2023-11-19T08:56:32;100807.41;;;12.62;100.00
77452;BME280;66537;52.370;4.832;2023-11-19T08:58:59;100815.19;;;12.62;100.00
77452;BME280;66537;52.370;4.832;2023-11-19T09:01:25;100814.16;;;12.66;100.00
77452;BME280;66537;52.370;4.832;2023-11-19T09:03:50;100814.13;;;12.67;100.00
77452;BME280;66537;52.370;4.832;2023-11-19T09:06:15;100807.41;;;12.62;100.00
77452;BME280;66537;52.370;4.832;2023-11-19T09:08:42;100815.66;;;12.73;100.00
77452;BME280;66537;52.370;4.832;2023-11-19T09:11:08;100801.47;;;12.82;100.00
77452;BME280;66537;52.370;4.832;2023-11-19T09:13:34;100798.84;;;12.83;100.00
77452;BME280;66537;52.370;4.832;2023-11-19T09:16:00;100799.72;;;12.82;100.00
77452;BME280;66537;52.370;4.832;2023-11-19T09:18:29;100802.81;;;12.92;100.00
77452;BME280;66537;52.370;4.832;2023-11-19T09:20:54;100818.16;;;12.98;100.00
77452;BME280;66537;52.370;4.832;2023-11-19T09:23:20;100798.31;;;13.18;100.00
77452;BME280;66537;52.370;4.832;2023-11-19T09:25:45;100810.94;;;13.06;100.00
77452;BME280;66537;52.370;4.832;2023-11-19T09:28:11;100806.31;;;12.91;100.00
77452;BME280;66537;52.370;4.832;2023-11-19T09:30:36;100792.88;;;12.80;100.00
77452;BME280;66537;52.370;4.832;2023-11-19T09:33:01;100810.09;;;12.82;100.00
77452;BME280;66537;52.370;4.832;2023-11-19T09:35:27;100799.94;;;12.76;100.00
77452;BME280;66537;52.370;4.832;2023-11-19T09:37:52;100803.34;;;12.78;100.00
77452;BME280;66537;52.370;4.832;2023-11-19T09:40:18;100806.22;;;12.70;100.00
77452;BME280;66537;52.370;4.832;2023-11-19T09:42:44;100799.28;;;12.71;100.00
77452;BME280;66537;52.370;4.832;2023-11-19T09:45:16;100795.06;;;12.68;100.00
77452;BME280;66537;52.370;4.832;2023-11-19T09:47:43;100788.06;;;12.70;100.00
77452;BME280;66537;52.370;4.832;2023-11-19T09:50:15;100803.78;;;12.66;100.00
77452;BME280;66537;52.370;4.832;2023-11-19T09:52:41;100792.75;;;12.61;100.00
77452;BME280;66537;52.370;4.832;2023-11-19T09:55:07;100790.28;;;12.80;100.00
77452;BME280;66537;52.370;4.832;2023-11-19T09:57:34;100807.59;;;13.02;100.00
77452;BME280;66537;52.370;4.832;2023-11-19T10:00:02;100797.66;;;13.55;100.00
77452;BME280;66537;52.370;4.832;2023-11-19T10:02:31;100793.59;;;13.90;100.00
77452;BME280;66537;52.370;4.832;2023-11-19T10:04:59;100797.28;;;14.04;100.00
77452;BME280;66537;52.370;4.832;2023-11-19T10:07:25;100797.09;;;13.69;100.00
77452;BME280;66537;52.370;4.832;2023-11-19T10:09:51;100796.56;;;13.81;100.00
77452;BME280;66537;52.370;4.832;2023-11-19T10:12:16;100787.84;;;13.41;100.00
77452;BME280;66537;52.370;4.832;2023-11-19T10:14:42;100788.53;;;13.25;100.00
77452;BME280;66537;52.370;4.832;2023-11-19T10:17:08;100786.84;;;13.24;100.00
77452;BME280;66537;52.370;4.832;2023-11-19T10:19:34;100788.03;;;13.37;100.00
77452;BME280;66537;52.370;4.832;2023-11-19T10:22:04;100792.16;;;13.21;100.00
77452;BME280;66537;52.370;4.832;2023-11-19T10:24:34;100787.69;;;12.80;100.00
77452;BME280;66537;52.370;4.832;2023-11-19T10:27:06;100771.91;;;12.62;100.00
77452;BME280;66537;52.370;4.832;2023-11-19T10:29:36;100771.91;;;12.62;100.00
77452;BME280;66537;52.370;4.832;2023-11-19T10:32:01;100784.06;;;13.28;100.00
77452;BME280;66537;52.370;4.832;2023-11-19T10:34:27;100786.00;;;13.85;100.00
77452;BME280;66537;52.370;4.832;2023-11-19T10:36:52;100791.91;;;14.09;100.00
77452;BME280;66537;52.370;4.832;2023-11-19T10:39:18;100801.25;;;14.13;100.00
77452;BME280;66537;52.370;4.832;2023-11-19T10:41:43;100823.41;;;14.21;100.00
77452;BME280;66537;52.370;4.832;2023-11-19T10:44:09;100801.19;;;14.14;100.00
77452;BME280;66537;52.370;4.832;2023-11-19T10:46:42;100784.09;;;13.69;100.00
77452;BME280;66537;52.370;4.832;2023-11-19T10:49:09;100796.59;;;13.61;100.00
77452;BME280;66537;52.370;4.832;2023-11-19T10:51:34;100798.66;;;13.52;100.00
77452;BME280;66537;52.370;4.832;2023-11-19T10:54:05;100803.31;;;13.44;100.00
77452;BME280;66537;52.370;4.832;2023-11-19T10:56:31;100792.13;;;13.42;100.00
77452;BME280;66537;52.370;4.832;2023-11-19T10:58:59;100807.66;;;13.44;100.00
77452;BME280;66537;52.370;4.832;2023-11-19T11:01:27;100796.97;;;13.72;100.00
77452;BME280;66537;52.370;4.832;2023-11-19T11:03:57;100797.09;;;14.29;100.00
77452;BME280;66537;52.370;4.832;2023-11-19T11:06:26;100783.03;;;14.33;100.00
77452;BME280;66537;52.370;4.832;2023-11-19T11:08:53;100794.09;;;14.38;100.00
77452;BME280;66537;52.370;4.832;2023-11-19T11:11:19;100790.91;;;14.50;100.00
77452;BME280;66537;52.370;4.832;2023-11-19T11:13:50;100781.66;;;14.63;100.00
77452;BME280;66537;52.370;4.832;2023-11-19T11:16:18;100787.34;;;14.53;100.00
77452;BME280;66537;52.370;4.832;2023-11-19T11:18:44;100789.50;;;14.23;100.00
77452;BME280;66537;52.370;4.832;2023-11-19T11:21:21;100788.44;;;14.28;100.00
77452;BME280;66537;52.370;4.832;2023-11-19T11:27:02;100774.38;;;14.12;100.00
77452;BME280;66537;52.370;4.832;2023-11-19T11:32:48;100787.16;;;13.58;100.00
77452;BME280;66537;52.370;4.832;2023-11-19T11:38:03;100783.44;;;13.64;100.00
77452;BME280;66537;52.370;4.832;2023-11-19T11:40:29;100777.59;;;13.58;100.00
77452;BME280;66537;52.370;4.832;2023-11-19T11:42:54;100781.81;;;13.61;100.00
77452;BME280;66537;52.370;4.832;2023-11-19T11:45:35;100772.53;;;13.55;100.00
77452;BME280;66537;52.370;4.832;2023-11-19T11:48:08;100770.25;;;13.48;100.00
77452;BME280;66537;52.370;4.832;2023-11-19T11:50:34;100775.59;;;13.45;100.00
77452;BME280;66537;52.370;4.832;2023-11-19T11:55:37;100770.97;;;13.51;100.00
77452;BME280;66537;52.370;4.832;2023-11-19T11:58:03;100756.50;;;13.66;100.00
77452;BME280;66537;52.370;4.832;2023-11-19T12:00:32;100771.88;;;13.71;100.00
77452;BME280;66537;52.370;4.832;2023-11-19T12:03:02;100759.41;;;13.79;100.00
77452;BME280;66537;52.370;4.832;2023-11-19T12:05:28;100757.91;;;13.73;100.00
77452;BME280;66537;52.370;4.832;2023-11-19T12:08:00;100754.22;;;13.58;100.00
77452;BME280;66537;52.370;4.832;2023-11-19T12:10:29;100763.31;;;13.48;100.00
77452;BME280;66537;52.370;4.832;2023-11-19T12:13:01;100767.56;;;13.49;100.00
77452;BME280;66537;52.370;4.832;2023-11-19T12:15:26;100763.16;;;13.51;100.00
77452;BME280;66537;52.370;4.832;2023-11-19T12:17:54;100763.63;;;13.41;100.00
77452;BME280;66537;52.370;4.832;2023-11-19T12:20:22;100758.59;;;13.36;100.00
77452;BME280;66537;52.370;4.832;2023-11-19T12:22:48;100766.41;;;13.36;100.00
77452;BME280;66537;52.370;4.832;2023-11-19T12:25:15;100765.88;;;13.28;100.00
77452;BME280;66537;52.370;4.832;2023-11-19T12:27:49;100764.84;;;13.32;100.00
77452;BME280;66537;52.370;4.832;2023-11-19T12:30:32;100763.34;;;13.27;100.00
77452;BME280;66537;52.370;4.832;2023-11-19T12:32:57;100756.88;;;13.15;100.00
77452;BME280;66537;52.370;4.832;2023-11-19T12:35:23;100767.09;;;13.20;100.00
77452;BME280;66537;52.370;4.832;2023-11-19T12:37:50;100764.38;;;13.23;100.00
77452;BME280;66537;52.370;4.832;2023-11-19T12:40:22;100757.53;;;13.20;100.00
77452;BME280;66537;52.370;4.832;2023-11-19T12:42:49;100754.16;;;13.18;100.00
77452;BME280;66537;52.370;4.832;2023-11-19T12:45:15;100745.78;;;13.12;100.00
77452;BME280;66537;52.370;4.832;2023-11-19T12:47:44;100758.94;;;13.07;100.00
77452;BME280;66537;52.370;4.832;2023-11-19T12:50:12;100743.34;;;13.07;100.00